createdAt,value
2022-10-01T00:00:55.454Z,97726.31
2022-10-01T00:03:24.404Z,97720.13
2022-10-01T00:06:01.734Z,97722.31
2022-10-01T00:08:30.493Z,97723.53
2022-10-01T00:11:01.784Z,97715.38
2022-10-01T00:13:30.557Z,97720.53
2022-10-01T00:15:59.063Z,97711.84
2022-10-01T00:18:26.136Z,97720.53
2022-10-01T00:20:53.202Z,97710.38
2022-10-01T00:23:20.381Z,97711.09
2022-10-01T00:25:47.576Z,97719.03
2022-10-01T00:28:14.804Z,97720.34
2022-10-01T00:30:48.201Z,97725.59
2022-10-01T00:33:15.370Z,97717.94
2022-10-01T00:35:42.423Z,97713.78
2022-10-01T00:38:09.617Z,97714.75
2022-10-01T00:40:36.644Z,97713.28
2022-10-01T00:43:20.095Z,97708.81
2022-10-01T00:45:47.335Z,97716.72
2022-10-01T00:48:14.928Z,97715.56
2022-10-01T00:50:42.212Z,97707.38
2022-10-01T00:53:13.477Z,97704.38
2022-10-01T00:55:46.617Z,97699.22
2022-10-01T00:58:14.968Z,97701.72
2022-10-01T01:00:42.505Z,97694.78
2022-10-01T01:03:10.460Z,97686.66
2022-10-01T01:05:39.296Z,97688.47
2022-10-01T01:08:06.846Z,97689.75
2022-10-01T01:10:44.167Z,97691.75
2022-10-01T01:13:24.012Z,97690.56
2022-10-01T01:16:03.664Z,97693.00
2022-10-01T01:18:36.556Z,97689.03
2022-10-01T01:21:14.334Z,97687.84
2022-10-01T01:24:00.251Z,97696.50
2022-10-01T01:27:06.770Z,97689.88
2022-10-01T01:29:43.283Z,97695.75
2022-10-01T01:32:48.546Z,97685.69
2022-10-01T01:35:21.042Z,97688.19
2022-10-01T01:37:53.516Z,97685.25
2022-10-01T01:40:21.299Z,97678.59
2022-10-01T01:42:48.931Z,97678.59
2022-10-01T01:45:20.154Z,97673.16
2022-10-01T01:47:47.833Z,97675.91
2022-10-01T01:50:16.248Z,97669.72
2022-10-01T01:52:43.390Z,97670.97
2022-10-01T01:55:10.872Z,97663.03
2022-10-01T01:57:41.275Z,97661.78
2022-10-01T02:00:09.320Z,97665.03
2022-10-01T02:02:39.204Z,97661.34
2022-10-01T02:05:11.618Z,97657.41
2022-10-01T02:07:50.308Z,97651.47
2022-10-01T02:10:42.338Z,97648.06
2022-10-01T02:13:42.271Z,97641.88
2022-10-01T02:16:39.084Z,97636.47
2022-10-01T02:19:21.292Z,97638.47
2022-10-01T02:21:58.960Z,97646.63
2022-10-01T02:24:50.099Z,97640.22
2022-10-01T02:27:30.178Z,97634.28
2022-10-01T02:29:59.367Z,97639.50
2022-10-01T02:32:28.446Z,97634.06
2022-10-01T02:34:55.758Z,97637.78
2022-10-01T02:37:25.035Z,97634.06
2022-10-01T02:39:55.102Z,97624.94
2022-10-01T02:42:24.186Z,97631.88
2022-10-01T02:44:53.087Z,97634.59
2022-10-01T02:48:06.470Z,97630.13
2022-10-01T02:50:54.515Z,97620.50
2022-10-01T02:53:52.711Z,97623.44
2022-10-01T02:56:48.392Z,97627.16
2022-10-01T02:59:17.095Z,97619.78
2022-10-01T03:01:44.325Z,97615.06
2022-10-01T03:04:12.710Z,97628.16
2022-10-01T03:06:39.787Z,97626.69
2022-10-01T03:09:08.733Z,97625.94
2022-10-01T03:11:36.207Z,97628.19
2022-10-01T03:14:03.977Z,97620.03
2022-10-01T03:16:31.056Z,97613.38
2022-10-01T03:18:58.137Z,97609.69
2022-10-01T03:21:25.187Z,97613.63
2022-10-01T03:23:52.246Z,97612.09
2022-10-01T03:26:19.359Z,97606.44
2022-10-01T03:28:46.423Z,97610.16
2022-10-01T03:31:13.536Z,97614.88
2022-10-01T03:33:41.175Z,97606.00
2022-10-01T03:36:08.267Z,97599.31
2022-10-01T03:38:35.312Z,97606.50
2022-10-01T03:41:02.620Z,97600.81
2022-10-01T03:43:30.459Z,97597.63
2022-10-01T03:45:58.017Z,97600.59
2022-10-01T03:48:25.122Z,97598.88
2022-10-01T03:50:56.272Z,97603.34
2022-10-01T03:53:24.724Z,97603.34
2022-10-01T03:55:52.158Z,97598.88
2022-10-01T03:58:19.698Z,97596.41
2022-10-01T04:00:48.122Z,97589.69
2022-10-01T04:03:15.678Z,97587.94
2022-10-01T04:05:43.495Z,97583.25
2022-10-01T04:08:11.485Z,97577.28
2022-10-01T04:10:38.920Z,97578.28
2022-10-01T04:13:06.751Z,97571.38
2022-10-01T04:15:33.863Z,97577.56
2022-10-01T04:18:05.536Z,97570.38
2022-10-01T04:20:37.323Z,97568.16
2022-10-01T04:23:05.088Z,97566.91
2022-10-01T04:25:32.274Z,97570.13
2022-10-01T04:28:01.598Z,97568.88
2022-10-01T04:30:31.821Z,97563.69
2022-10-01T04:32:58.912Z,97563.91
2022-10-01T04:35:26.991Z,97559.72
2022-10-01T04:37:59.194Z,97563.16
2022-10-01T04:40:26.331Z,97557.00
2022-10-01T04:42:53.389Z,97548.59
2022-10-01T04:45:20.532Z,97559.22
2022-10-01T04:47:51.819Z,97552.53
2022-10-01T04:50:19.534Z,97553.25
2022-10-01T04:52:47.189Z,97548.56
2022-10-01T04:55:15.791Z,97553.25
2022-10-01T04:57:42.998Z,97556.97
2022-10-01T05:00:14.099Z,97551.25
2022-10-01T05:02:44.957Z,97543.31
2022-10-01T05:05:12.703Z,97545.56
2022-10-01T05:07:40.570Z,97546.03
2022-10-01T05:10:09.541Z,97543.56
2022-10-01T05:12:36.688Z,97551.47
2022-10-01T05:15:04.347Z,97547.97
2022-10-01T05:17:33.131Z,97543.78
2022-10-01T05:20:01.136Z,97550.19
2022-10-01T05:22:28.728Z,97543.00
2022-10-01T05:24:55.822Z,97550.16
2022-10-01T05:27:22.897Z,97544.44
2022-10-01T05:29:49.960Z,97547.88
2022-10-01T05:32:17.823Z,97552.56
2022-10-01T05:34:44.893Z,97543.16
2022-10-01T05:37:12.069Z,97544.34
2022-10-01T05:39:39.111Z,97545.31
2022-10-01T05:42:06.708Z,97542.09
2022-10-01T05:44:37.736Z,97550.72
2022-10-01T05:47:06.457Z,97536.31
2022-10-01T05:49:33.502Z,97536.03
2022-10-01T05:52:01.091Z,97533.31
2022-10-01T05:54:29.510Z,97534.75
2022-10-01T05:56:57.100Z,97524.53
2022-10-01T05:59:28.384Z,97517.34
2022-10-01T06:01:58.176Z,97520.97
2022-10-01T06:04:25.337Z,97516.69
2022-10-01T06:06:53.733Z,97512.47
2022-10-01T06:09:20.805Z,97518.28
2022-10-01T06:11:48.944Z,97519.88
2022-10-01T06:14:16.551Z,97518.84
2022-10-01T06:16:43.757Z,97512.88
2022-10-01T06:19:10.879Z,97508.88
2022-10-01T06:21:38.119Z,97495.72
2022-10-01T06:24:05.732Z,97498.63
2022-10-01T06:26:32.788Z,97490.69
2022-10-01T06:28:59.831Z,97486.75
2022-10-01T06:31:27.008Z,97486.78
2022-10-01T06:33:54.193Z,97485.31
2022-10-01T06:36:21.238Z,97480.91
2022-10-01T06:38:49.438Z,97480.47
2022-10-01T06:41:16.529Z,97471.66
2022-10-01T06:43:43.618Z,97468.69
2022-10-01T06:46:11.207Z,97465.75
2022-10-01T06:48:38.368Z,97456.25
2022-10-01T06:51:05.836Z,97458.75
2022-10-01T06:53:33.022Z,97447.75
2022-10-01T06:56:05.358Z,97458.25
2022-10-01T06:58:32.706Z,97459.88
2022-10-01T07:01:01.366Z,97448.47
2022-10-01T07:03:29.502Z,97448.00
2022-10-01T07:06:02.497Z,97446.25
2022-10-01T07:08:30.127Z,97442.84
2022-10-01T07:11:02.468Z,97444.50
2022-10-01T07:13:29.676Z,97446.38
2022-10-01T07:15:56.792Z,97438.75
2022-10-01T07:18:23.948Z,97437.38
2022-10-01T07:20:51.046Z,97439.94
2022-10-01T07:23:18.167Z,97436.34
2022-10-01T07:25:45.633Z,97433.97
2022-10-01T07:28:18.657Z,97433.28
2022-10-01T07:30:48.224Z,97426.94
2022-10-01T07:33:19.020Z,97427.53
2022-10-01T07:35:47.774Z,97423.69
2022-10-01T07:38:15.135Z,97418.59
2022-10-01T07:40:42.397Z,97424.06
2022-10-01T07:43:09.530Z,97423.00
2022-10-01T07:45:36.663Z,97410.78
2022-10-01T07:48:04.208Z,97414.25
2022-10-01T07:50:31.343Z,97413.69
2022-10-01T07:52:59.415Z,97406.44
2022-10-01T07:55:28.826Z,97412.63
2022-10-01T07:57:57.627Z,97401.47
2022-10-01T08:00:25.977Z,97404.41
2022-10-01T08:02:55.995Z,97397.66
2022-10-01T08:05:25.791Z,97392.56
2022-10-01T08:07:54.007Z,97398.97
2022-10-01T08:10:23.204Z,97386.38
2022-10-01T08:12:51.060Z,97396.78
2022-10-01T08:15:18.630Z,97396.22
2022-10-01T08:17:45.902Z,97396.44
2022-10-01T08:20:14.029Z,97386.94
2022-10-01T08:22:42.411Z,97390.59
2022-10-01T08:25:09.981Z,97381.31
2022-10-01T08:27:37.130Z,97389.91
2022-10-01T08:30:04.637Z,97388.78
2022-10-01T08:32:32.127Z,97382.25
2022-10-01T08:34:59.984Z,97388.81
2022-10-01T08:37:28.742Z,97380.59
2022-10-01T08:39:56.361Z,97380.44
2022-10-01T08:42:55.921Z,97384.28
2022-10-01T08:45:39.632Z,97370.94
2022-10-01T08:48:32.024Z,97372.78
2022-10-01T08:51:06.091Z,97365.63
2022-10-01T08:53:41.267Z,97366.38
2022-10-01T08:56:19.855Z,97367.84
2022-10-01T08:58:53.146Z,97353.78
2022-10-01T09:01:21.494Z,97355.25
2022-10-01T09:03:49.464Z,97345.16
2022-10-01T09:06:23.068Z,97336.59
2022-10-01T09:09:11.981Z,97320.50
2022-10-01T09:12:03.619Z,97297.84
2022-10-01T09:14:49.141Z,97296.19
2022-10-01T09:17:24.409Z,97287.59
2022-10-01T09:19:59.618Z,97293.81
2022-10-01T09:22:49.294Z,97296.75
2022-10-01T09:25:27.214Z,97305.72
2022-10-01T09:28:15.338Z,97323.06
2022-10-01T09:30:51.330Z,97314.47
2022-10-01T09:33:20.487Z,97309.75
2022-10-01T09:36:13.165Z,97302.75
2022-10-01T09:38:42.321Z,97285.78
2022-10-01T09:41:14.669Z,97295.47
2022-10-01T09:43:43.867Z,97284.31
2022-10-01T09:46:17.255Z,97293.47
2022-10-01T09:49:11.574Z,97309.91
2022-10-01T09:51:46.776Z,97283.41
2022-10-01T09:54:23.978Z,97281.03
2022-10-01T09:56:55.469Z,97274.28
2022-10-01T09:59:33.718Z,97272.25
2022-10-01T10:02:02.306Z,97266.03
2022-10-01T10:04:29.617Z,97262.38
2022-10-01T10:07:01.778Z,97259.47
2022-10-01T10:09:33.462Z,97258.91
2022-10-01T10:12:00.977Z,97277.16
2022-10-01T10:14:36.068Z,97273.69
2022-10-01T10:17:07.564Z,97264.16
2022-10-01T10:19:35.460Z,97265.75
2022-10-01T10:22:25.475Z,97259.72
2022-10-01T10:24:54.178Z,97263.34
2022-10-01T10:27:29.741Z,97260.75
2022-10-01T10:30:13.905Z,97259.25
2022-10-01T10:32:41.522Z,97246.47
2022-10-01T10:35:13.270Z,97256.81
2022-10-01T10:37:47.372Z,97265.38
2022-10-01T10:40:20.665Z,97258.78
2022-10-01T10:42:50.682Z,97258.78
2022-10-01T10:45:20.519Z,97263.88
2022-10-01T10:47:50.192Z,97262.41
2022-10-01T10:50:29.873Z,97266.59
2022-10-01T10:52:57.787Z,97263.13
2022-10-01T10:55:33.023Z,97257.28
2022-10-01T10:58:14.468Z,97270.06
2022-10-01T11:00:47.760Z,97262.38
2022-10-01T11:03:16.723Z,97267.09
2022-10-01T11:05:44.498Z,97265.28
2022-10-01T11:08:20.734Z,97263.06
2022-10-01T11:10:58.073Z,97257.94
2022-10-01T11:13:59.601Z,97259.94
2022-10-01T11:16:51.174Z,97255.94
2022-10-01T11:19:23.543Z,97257.59
2022-10-01T11:22:02.350Z,97250.88
2022-10-01T11:24:51.590Z,97257.59
2022-10-01T11:27:36.170Z,97252.13
2022-10-01T11:30:20.350Z,97248.13
2022-10-01T11:33:05.723Z,97247.91
2022-10-01T11:35:42.264Z,97252.47
2022-10-01T11:38:15.522Z,97247.34
2022-10-01T11:40:45.578Z,97256.28
2022-10-01T11:43:33.407Z,97254.28
2022-10-01T11:46:21.698Z,97248.81
2022-10-01T11:48:53.103Z,97252.28
2022-10-01T11:51:24.319Z,97250.28
2022-10-01T11:53:55.815Z,97238.97
2022-10-01T11:56:45.934Z,97239.72
2022-10-01T11:59:24.946Z,97250.13
2022-10-01T12:01:58.630Z,97250.13
2022-10-01T12:04:47.079Z,97254.84
2022-10-01T12:07:40.971Z,97241.16
2022-10-01T12:10:33.280Z,97243.72
2022-10-01T12:13:08.139Z,97245.19
2022-10-01T12:16:01.896Z,97244.25
2022-10-01T12:18:49.068Z,97240.78
2022-10-01T12:21:26.735Z,97240.78
2022-10-01T12:24:06.321Z,97236.41
2022-10-01T12:26:45.826Z,97234.56
2022-10-01T12:29:18.932Z,97229.03
2022-10-01T12:32:13.690Z,97217.50
2022-10-01T12:35:13.790Z,97222.78
2022-10-01T12:38:14.165Z,97220.41
2022-10-01T12:40:57.998Z,97215.81
2022-10-01T12:43:43.766Z,97227.47
2022-10-01T12:46:20.027Z,97228.63
2022-10-01T12:49:06.201Z,97231.91
2022-10-01T12:51:52.580Z,97236.50
2022-10-01T12:54:46.820Z,97227.78
2022-10-01T12:57:34.979Z,97238.88
2022-10-01T13:00:09.910Z,97234.16
2022-10-01T13:02:49.132Z,97241.28
2022-10-01T13:05:42.092Z,97238.22
2022-10-01T13:08:18.381Z,97242.94
2022-10-01T13:10:59.995Z,97240.22
2022-10-01T13:13:32.912Z,97241.88
2022-10-01T13:16:23.150Z,97232.78
2022-10-01T13:19:00.594Z,97235.38
2022-10-01T13:21:39.980Z,97231.22
2022-10-01T13:24:13.079Z,97236.19
2022-10-01T13:26:53.849Z,97229.78
2022-10-01T13:29:31.069Z,97230.03
2022-10-01T13:31:59.815Z,97235.34
2022-10-01T13:34:39.387Z,97218.06
2022-10-01T13:37:14.474Z,97229.34
2022-10-01T13:39:43.345Z,97233.94
2022-10-01T13:42:19.643Z,97222.13
2022-10-01T13:44:52.321Z,97228.88
2022-10-01T13:47:19.699Z,97221.22
2022-10-01T13:50:04.753Z,97221.78
2022-10-01T13:52:32.559Z,97225.09
2022-10-01T13:55:00.726Z,97215.03
2022-10-01T13:57:35.128Z,97224.38
2022-10-01T14:00:08.398Z,97224.16
2022-10-01T14:02:38.000Z,97213.22
2022-10-01T14:05:17.081Z,97223.09
2022-10-01T14:07:45.569Z,97218.72
2022-10-01T14:10:14.537Z,97221.44
2022-10-01T14:13:02.600Z,97223.28
2022-10-01T14:15:56.395Z,97226.19
2022-10-01T14:18:26.651Z,97227.50
2022-10-01T14:21:08.821Z,97226.38
2022-10-01T14:23:48.536Z,97232.06
2022-10-01T14:26:28.745Z,97232.78
2022-10-01T14:29:01.933Z,97243.03
2022-10-01T14:31:38.070Z,97240.81
2022-10-01T14:34:20.659Z,97244.84
2022-10-01T14:36:49.864Z,97239.00
2022-10-01T14:39:22.058Z,97247.78
2022-10-01T14:41:51.394Z,97242.28
2022-10-01T14:44:23.403Z,97247.56
2022-10-01T14:46:51.890Z,97256.72
2022-10-01T14:49:26.016Z,97255.44
2022-10-01T14:52:01.986Z,97258.91
2022-10-01T14:54:30.189Z,97261.66
2022-10-01T14:56:57.546Z,97265.13
2022-10-01T14:59:37.502Z,97269.31
2022-10-01T15:02:20.124Z,97272.78
2022-10-01T15:04:52.354Z,97271.50
2022-10-01T15:07:19.472Z,97262.94
2022-10-01T15:09:47.531Z,97265.13
2022-10-01T15:12:16.883Z,97276.66
2022-10-01T15:14:44.851Z,97278.84
2022-10-01T15:17:27.907Z,97280.28
2022-10-01T15:19:56.365Z,97271.34
2022-10-01T15:22:27.480Z,97276.28
2022-10-01T15:24:57.818Z,97276.09
2022-10-01T15:27:25.947Z,97273.91
2022-10-01T15:29:56.817Z,97264.94
2022-10-01T15:32:24.921Z,97273.34
2022-10-01T15:34:54.740Z,97287.22
2022-10-01T15:37:32.113Z,97279.75
2022-10-01T15:40:00.519Z,97276.28
2022-10-01T15:42:31.896Z,97280.66
2022-10-01T15:45:08.314Z,97273.69
2022-10-01T15:47:39.529Z,97278.66
2022-10-01T15:50:16.064Z,97275.16
2022-10-01T15:53:00.130Z,97285.59
2022-10-01T15:55:30.620Z,97281.56
2022-10-01T15:58:03.794Z,97283.78
2022-10-01T16:00:33.799Z,97275.53
2022-10-01T16:03:02.045Z,97289.97
2022-10-01T16:05:36.963Z,97291.63
2022-10-01T16:08:04.029Z,97287.41
2022-10-01T16:10:40.806Z,97291.44
2022-10-01T16:13:45.136Z,97288.69
2022-10-01T16:16:24.366Z,97295.63
2022-10-01T16:19:00.100Z,97298.94
2022-10-01T16:21:27.175Z,97296.91
2022-10-01T16:23:55.577Z,97299.31
2022-10-01T16:26:34.843Z,97304.97
2022-10-01T16:29:06.399Z,97297.84
2022-10-01T16:31:35.380Z,97302.97
2022-10-01T16:34:02.581Z,97300.06
2022-10-01T16:36:32.108Z,97297.09
2022-10-01T16:38:59.951Z,97307.91
2022-10-01T16:41:27.166Z,97314.66
2022-10-01T16:43:56.148Z,97310.81
2022-10-01T16:46:23.256Z,97324.88
2022-10-01T16:48:53.802Z,97335.84
2022-10-01T16:51:21.911Z,97337.31
2022-10-01T16:53:49.732Z,97349.56
2022-10-01T16:56:16.776Z,97341.88
2022-10-01T16:58:44.291Z,97356.31
2022-10-01T17:01:14.328Z,97349.56
2022-10-01T17:03:41.814Z,97360.69
2022-10-01T17:06:09.015Z,97368.38
2022-10-01T17:08:36.148Z,97363.63
2022-10-01T17:11:03.607Z,97360.88
2022-10-01T17:13:33.143Z,97369.31
2022-10-01T17:16:00.925Z,97364.38
2022-10-01T17:18:28.132Z,97362.88
2022-10-01T17:20:56.081Z,97372.59
2022-10-01T17:23:23.560Z,97369.47
2022-10-01T17:25:50.954Z,97387.56
2022-10-01T17:28:20.124Z,97394.13
2022-10-01T17:30:49.012Z,97395.41
2022-10-01T17:33:19.184Z,97401.09
2022-10-01T17:35:51.575Z,97405.28
2022-10-01T17:38:19.248Z,97402.00
2022-10-01T17:40:47.170Z,97411.69
2022-10-01T17:43:15.793Z,97408.59
2022-10-01T17:45:43.950Z,97411.50
2022-10-01T17:48:11.747Z,97404.56
2022-10-01T17:50:43.643Z,97409.72
2022-10-01T17:53:11.922Z,97415.94
2022-10-01T17:55:42.682Z,97421.59
2022-10-01T17:58:09.954Z,97431.81
2022-10-01T18:00:37.732Z,97439.50
2022-10-01T18:03:04.886Z,97440.06
2022-10-01T18:05:32.174Z,97441.34
2022-10-01T18:07:59.210Z,97445.34
2022-10-01T18:10:26.298Z,97450.25
2022-10-01T18:12:53.803Z,97442.00
2022-10-01T18:15:23.895Z,97446.38
2022-10-01T18:18:48.542Z,97450.22
2022-10-01T18:20:41.367Z,97449.09
2022-10-01T18:23:08.506Z,97451.09
2022-10-01T18:25:35.619Z,97460.59
2022-10-01T18:28:02.803Z,97469.53
2022-10-01T18:30:30.108Z,97469.38
2022-10-01T18:32:57.310Z,97464.97
2022-10-01T18:35:31.808Z,97467.16
2022-10-01T18:38:06.909Z,97460.78
2022-10-01T18:40:39.622Z,97457.81
2022-10-01T18:43:16.320Z,97472.25
2022-10-01T18:45:55.328Z,97471.16
2022-10-01T18:48:37.274Z,97471.88
2022-10-01T18:51:24.785Z,97473.50
2022-10-01T18:54:02.206Z,97472.22
2022-10-01T18:56:34.347Z,97485.00
2022-10-01T18:59:26.210Z,97490.28
2022-10-01T19:01:53.459Z,97490.09
2022-10-01T19:04:45.119Z,97494.84
2022-10-01T19:07:14.874Z,97493.91
2022-10-01T19:10:08.214Z,97495.91
2022-10-01T19:12:50.061Z,97500.66
2022-10-01T19:15:17.013Z,97495.72
2022-10-01T19:18:10.275Z,97497.72
2022-10-01T19:20:37.295Z,97499.38
2022-10-01T19:23:58.547Z,97500.84
2022-10-01T19:26:31.233Z,97501.59
2022-10-01T19:29:02.223Z,97507.28
2022-10-01T19:31:59.951Z,97512.59
2022-10-01T19:34:34.937Z,97506.91
2022-10-01T19:37:06.679Z,97522.47
2022-10-01T19:39:37.422Z,97516.78
2022-10-01T19:42:38.303Z,97523.22
2022-10-01T19:45:29.318Z,97528.16
2022-10-01T19:48:03.646Z,97530.88
2022-10-01T19:50:34.557Z,97546.25
2022-10-01T19:53:03.326Z,97545.19
2022-10-01T19:55:38.610Z,97547.38
2022-10-01T19:58:16.180Z,97545.56
2022-10-01T20:00:47.316Z,97549.97
2022-10-01T20:03:32.270Z,97554.16
2022-10-01T20:06:04.410Z,97564.41
2022-10-01T20:08:41.630Z,97569.34
2022-10-01T20:11:23.891Z,97576.81
2022-10-01T20:14:08.637Z,97579.56
2022-10-01T20:16:47.849Z,97589.44
2022-10-01T20:19:33.026Z,97596.94
2022-10-01T20:22:13.078Z,97592.72
2022-10-01T20:25:00.339Z,97604.97
2022-10-01T20:27:45.820Z,97601.69
2022-10-01T20:30:20.586Z,97606.63
2022-10-01T20:33:32.243Z,97606.81
2022-10-01T20:36:05.562Z,97616.53
2022-10-01T20:38:48.875Z,97623.81
2022-10-01T20:41:18.614Z,97627.81
2022-10-01T20:43:51.223Z,97633.84
2022-10-01T20:46:43.274Z,97637.66
2022-10-01T20:49:18.248Z,97642.75
2022-10-01T20:51:55.821Z,97642.56
2022-10-01T20:54:33.167Z,97645.63
2022-10-01T20:57:10.963Z,97640.50
2022-10-01T20:59:47.184Z,97641.03
2022-10-01T21:02:23.494Z,97642.63
2022-10-01T21:05:03.597Z,97655.94
2022-10-01T21:08:04.484Z,97656.50
2022-10-01T21:10:44.793Z,97660.47
2022-10-01T21:13:29.853Z,97670.69
2022-10-01T21:16:12.562Z,97679.13
2022-10-01T21:18:58.434Z,97679.34
2022-10-01T21:21:32.080Z,97682.06
2022-10-01T21:24:08.236Z,97679.34
2022-10-01T21:27:03.064Z,97684.81
2022-10-01T21:29:56.788Z,97692.69
2022-10-01T21:32:56.848Z,97701.13
2022-10-01T21:35:42.165Z,97704.78
2022-10-01T21:38:18.369Z,97704.78
2022-10-01T21:41:20.822Z,97723.22
2022-10-01T21:44:10.808Z,97736.94
2022-10-01T21:47:02.637Z,97730.72
2022-10-01T21:49:38.567Z,97730.72
2022-10-01T21:52:17.222Z,97730.72
2022-10-01T21:54:55.590Z,97742.41
2022-10-01T21:57:53.723Z,97739.13
2022-10-01T22:00:24.798Z,97749.56
2022-10-01T22:03:19.630Z,97750.09
2022-10-01T22:06:02.582Z,97762.88
2022-10-01T22:08:35.746Z,97761.72
2022-10-01T22:11:07.811Z,97767.94
2022-10-01T22:13:37.495Z,97772.88
2022-10-01T22:16:08.656Z,97769.94
2022-10-01T22:18:35.942Z,97779.63
2022-10-01T22:21:07.694Z,97788.03
2022-10-01T22:23:38.392Z,97783.63
2022-10-01T22:26:17.941Z,97782.16
2022-10-01T22:28:49.053Z,97784.72
2022-10-01T22:31:20.231Z,97793.66
2022-10-01T22:33:54.190Z,97800.06
2022-10-01T22:36:34.110Z,97799.34
2022-10-01T22:39:05.072Z,97811.56
2022-10-01T22:41:45.432Z,97808.84
2022-10-01T22:44:18.291Z,97804.44
2022-10-01T22:46:54.404Z,97804.75
2022-10-01T22:49:39.282Z,97811.50
2022-10-01T22:52:44.114Z,97807.09
2022-10-01T22:55:21.666Z,97807.28
2022-10-01T22:57:57.473Z,97803.63
2022-10-01T23:00:26.265Z,97813.06
2022-10-01T23:03:21.532Z,97812.16
2022-10-01T23:05:57.490Z,97818.47
2022-10-01T23:08:42.554Z,97828.50
2022-10-01T23:11:52.672Z,97837.88
2022-10-01T23:14:37.236Z,97843.66
2022-10-01T23:17:09.006Z,97848.53
2022-10-01T23:19:46.719Z,97845.78
2022-10-01T23:22:45.468Z,97852.75
2022-10-01T23:25:19.262Z,97850.72
2022-10-01T23:28:15.080Z,97852.22
2022-10-01T23:30:48.225Z,97859.88
2022-10-01T23:33:34.207Z,97857.34
2022-10-01T23:36:17.729Z,97870.50
2022-10-01T23:39:10.005Z,97866.31
2022-10-01T23:41:40.030Z,97869.28
2022-10-01T23:44:15.638Z,97883.16
2022-10-01T23:46:45.281Z,97887.91
2022-10-01T23:49:16.396Z,97884.63
2022-10-01T23:51:50.158Z,97895.59
2022-10-01T23:54:32.143Z,97894.53
2022-10-01T23:57:04.198Z,97900.22
2022-10-01T23:59:36.313Z,97901.47
